Thomasboro, Illinois
Current Conditions -  °F | °C
As of 5:50 AM on Sunday 21 Dec 2014 (Local Time) from KTIP Reporting Station
Haze Haze  
Wind Chill: 27°   Ceiling: 2800
Heat Index: 32°   Visibility: 5mi
Dew Point: 30°   Wind: 6mph
Humidity: 92%   Direction: 140°SE
Pressure: 30.25"   Gusts: NA
Location:  40.24°N, 88.18°W
Report Text: KTIP 211150Z AUTO 14005KT 5SM BR OVC028 00/M01 A3025 RMK AO2 T00021010 10002 20000
Loading
Personal Weather Stations






























Interactive Weather Map New forecast layout! Learn more

10-Day Weather Forecast

Advertisements
Track Severe Weather on mobile